CYBL

Campbell River Airport

Campbell River, , Canada
METAR CYBL 220400Z 13010G17KT 2 1/2SM BR OVC004 13/13 A2973 RMK ST8 LAST STFD OBS/NEXT 221300 UTC SLP071 DENSITY ALT 500FT
Observed Flight Rules
Sep-22 @ 04:00 UTC (3 hours ago) Instrument Flight Rules
Wind Visibility Clouds Conditions
130° at 10 knots
 Gusting to 17 knots
2 1/2 miles
Temperatures Readings
Current 13°C / 55°F
Dewpoint 13°C / 55°F
Humidity 100%
Altimeter 29.73" Hg
Pressure 1007.1 hPa
Elevation 106
METAR CYBL 220400Z 13010G17KT 2 1/2SM BR OVC004 13/13 A2973 RMK ST8 LAST STFD OBS/NEXT 221300 UTC SLP071 DENSITY ALT 500FT
Observed Flight Rules
Sep-22 @ 04:00 UTC
(3 hours ago)
LIFR
Wind Visibility
130° at 10 knots
 Gusting to 17 knots
2 1/2 miles
Clouds
Conditions
Temperature Dewpoint
13°C / 55°F 13°C / 55°F
Humidity Altimeter Pressure
100% 29.73" Hg 1007.1 hPa